createdAt,value
2018-04-23T00:00:33.659Z,1000.44
2018-04-23T00:01:33.642Z,1000.38
2018-04-23T00:02:33.622Z,1000.4
2018-04-23T00:03:33.604Z,1000.37
2018-04-23T00:04:33.585Z,1000.43
2018-04-23T00:05:33.565Z,1000.4
2018-04-23T00:06:33.546Z,1000.47
2018-04-23T00:07:33.529Z,1000.46
2018-04-23T00:08:33.508Z,1000.42
2018-04-23T00:09:33.490Z,1000.45
2018-04-23T00:10:33.472Z,1000.4
2018-04-23T00:11:33.457Z,1000.43
2018-04-23T00:12:33.433Z,1000.37
2018-04-23T00:13:33.413Z,1000.35
2018-04-23T00:14:33.396Z,1000.32
2018-04-23T00:15:33.379Z,1000.3
2018-04-23T00:16:33.368Z,1000.25
2018-04-23T00:17:33.342Z,1000.24
2018-04-23T00:18:33.320Z,1000.22
2018-04-23T00:19:33.300Z,1000.22
2018-04-23T00:20:33.282Z,1000.23
2018-04-23T00:21:33.262Z,1000.24
2018-04-23T00:22:33.245Z,1000.19
2018-04-23T00:23:33.226Z,1000.16
2018-04-23T00:24:33.208Z,1000.14
2018-04-23T00:25:33.188Z,1000.15
2018-04-23T00:26:33.170Z,1000.18
2018-04-23T00:27:33.150Z,1000.26
2018-04-23T00:28:33.133Z,1000.23
2018-04-23T00:29:33.112Z,1000.27
2018-04-23T00:30:33.094Z,1000.3
2018-04-23T00:31:33.076Z,1000.33
2018-04-23T00:32:33.057Z,1000.41
2018-04-23T00:33:33.040Z,1000.48
2018-04-23T00:34:33.020Z,1000.61
2018-04-23T00:35:33.001Z,1000.83
2018-04-23T00:36:32.982Z,1001.16
2018-04-23T00:37:32.963Z,1001.44
2018-04-23T00:38:32.944Z,1001.48
2018-04-23T00:39:32.928Z,1001.8
2018-04-23T00:40:32.912Z,1001.8
2018-04-23T00:41:32.888Z,1001.73
2018-04-23T00:42:32.870Z,1001.65
2018-04-23T00:43:32.851Z,1001.53
2018-04-23T00:44:32.833Z,1001.29
2018-04-23T00:45:32.812Z,1001.14
2018-04-23T00:46:32.793Z,1001.03
2018-04-23T00:47:32.775Z,1001.2
2018-04-23T00:48:32.755Z,1001.3
2018-04-23T00:49:32.735Z,1001.48
2018-04-23T00:50:32.717Z,1001.49
2018-04-23T00:51:32.698Z,1001.59
2018-04-23T00:52:32.678Z,1001.66
2018-04-23T00:53:32.658Z,1001.73
2018-04-23T00:54:32.638Z,1001.73
2018-04-23T00:55:32.619Z,1001.71
2018-04-23T00:56:32.599Z,1001.72
2018-04-23T00:57:32.579Z,1001.68
2018-04-23T00:58:32.560Z,1001.59
2018-04-23T00:59:32.539Z,1001.56
2018-04-23T01:00:32.520Z,1001.62
2018-04-23T01:01:32.500Z,1001.67
2018-04-23T01:02:32.480Z,1001.71
2018-04-23T01:03:32.461Z,1001.71
2018-04-23T01:04:32.441Z,1001.7
2018-04-23T01:05:32.422Z,1001.61
2018-04-23T01:06:32.405Z,1001.57
2018-04-23T01:07:32.381Z,1001.46
2018-04-23T01:08:32.360Z,1001.4
2018-04-23T01:09:32.342Z,1001.34
2018-04-23T01:10:32.320Z,1001.22
2018-04-23T01:11:32.302Z,1001.14
2018-04-23T01:12:32.281Z,1001.23
2018-04-23T01:13:32.261Z,1001.19
2018-04-23T01:14:32.244Z,1001.06
2018-04-23T01:15:32.322Z,1000.92
2018-04-23T01:16:32.209Z,1000.88
2018-04-23T01:17:32.184Z,1000.94
2018-04-23T01:18:32.168Z,1001.05
2018-04-23T01:19:32.141Z,1001.05
2018-04-23T01:20:32.129Z,1001.09
2018-04-23T01:21:32.100Z,1001.07
2018-04-23T01:22:32.086Z,1001.08
2018-04-23T01:23:32.065Z,1001.11
2018-04-23T01:24:32.043Z,1001.13
2018-04-23T01:25:32.025Z,1001.1
2018-04-23T01:26:32.002Z,1001.07
2018-04-23T01:27:31.983Z,1001.07
2018-04-23T01:28:31.963Z,1001.07
2018-04-23T01:29:31.943Z,1001.05
2018-04-23T01:30:31.922Z,1001.05
2018-04-23T01:31:31.903Z,1001.06
2018-04-23T01:32:31.882Z,1001
2018-04-23T01:33:31.861Z,1001.01
2018-04-23T01:34:31.844Z,1001.05
2018-04-23T01:35:31.823Z,1001.06
2018-04-23T01:36:31.802Z,1001.06
2018-04-23T01:37:31.782Z,1001.09
2018-04-23T01:38:31.763Z,1001.11
2018-04-23T01:39:31.742Z,1001.13
2018-04-23T01:40:31.721Z,1001.1
2018-04-23T01:41:31.702Z,1001.1
2018-04-23T01:42:31.681Z,1001.07
2018-04-23T01:43:31.660Z,1001.13
2018-04-23T01:44:31.641Z,1001.08
2018-04-23T01:45:31.628Z,1001.05
2018-04-23T01:46:31.602Z,1001.08
2018-04-23T01:47:31.580Z,1001.06
2018-04-23T01:48:31.663Z,1001.07
2018-04-23T01:49:31.541Z,1001.07
2018-04-23T01:50:31.521Z,1001.08
2018-04-23T01:51:31.500Z,1001.07
2018-04-23T01:52:31.480Z,1001.05
2018-04-23T01:53:31.561Z,1001.09
2018-04-23T01:54:31.443Z,1001.09
2018-04-23T01:55:31.420Z,1001.06
2018-04-23T01:56:31.400Z,1001.06
2018-04-23T01:57:31.379Z,1001.12
2018-04-23T01:58:31.360Z,1001.12
2018-04-23T01:59:31.340Z,1001.11
2018-04-23T02:00:31.320Z,1001.04
2018-04-23T02:01:31.303Z,1001.06
2018-04-23T02:02:31.279Z,1001.07
2018-04-23T02:03:31.262Z,1001.04
2018-04-23T02:04:31.243Z,1001.02
2018-04-23T02:05:31.225Z,1001.08
2018-04-23T02:06:31.203Z,1001.1
2018-04-23T02:07:31.181Z,1001.08
2018-04-23T02:08:31.159Z,1001.06
2018-04-23T02:09:31.139Z,1001.07
2018-04-23T02:10:31.119Z,1001.09
2018-04-23T02:11:31.098Z,1001.07
2018-04-23T02:12:31.082Z,1001.06
2018-04-23T02:13:31.061Z,1001.08
2018-04-23T02:14:31.037Z,1001.05
2018-04-23T02:15:31.019Z,1001.04
2018-04-23T02:16:30.998Z,1001.05
2018-04-23T02:17:30.978Z,1001.05
2018-04-23T02:18:30.958Z,1001.08
2018-04-23T02:19:30.937Z,1001.09
2018-04-23T02:20:30.917Z,1001.08
2018-04-23T02:21:30.897Z,1001.07
2018-04-23T02:22:30.877Z,1001.1
2018-04-23T02:23:30.856Z,1001.15
2018-04-23T02:24:30.836Z,1001.16
2018-04-23T02:25:30.817Z,1001.1
2018-04-23T02:26:30.796Z,1001.15
2018-04-23T02:27:30.776Z,1001.17
2018-04-23T02:28:30.759Z,1001.15
2018-04-23T02:29:30.736Z,1001.2
2018-04-23T02:30:30.716Z,1001.22
2018-04-23T02:31:30.695Z,1001.24
2018-04-23T02:32:30.675Z,1001.24
2018-04-23T02:33:30.655Z,1001.22
2018-04-23T02:34:30.633Z,1001.24
2018-04-23T02:35:30.614Z,1001.21
2018-04-23T02:36:30.596Z,1001.21
2018-04-23T02:37:30.591Z,1001.21
2018-04-23T02:38:30.552Z,1001.16
2018-04-23T02:39:30.532Z,1001.16
2018-04-23T02:40:30.522Z,1001.16
2018-04-23T02:41:30.494Z,1001.17
2018-04-23T02:42:30.473Z,1001.27
2018-04-23T02:43:30.453Z,1001.29
2018-04-23T02:44:30.432Z,1001.26
2018-04-23T02:45:30.410Z,1001.29
2018-04-23T02:46:30.392Z,1001.31
2018-04-23T02:47:30.371Z,1001.35
2018-04-23T02:48:30.355Z,1001.38
2018-04-23T02:49:30.331Z,1001.41
2018-04-23T02:50:30.309Z,1001.45
2018-04-23T02:51:30.291Z,1001.41
2018-04-23T02:52:30.270Z,1001.42
2018-04-23T02:53:30.250Z,1001.41
2018-04-23T02:54:30.230Z,1001.39
2018-04-23T02:55:30.209Z,1001.39
2018-04-23T02:56:30.189Z,1001.39
2018-04-23T02:57:30.169Z,1001.38
2018-04-23T02:58:30.192Z,1001.29
2018-04-23T02:59:30.129Z,1001.27
2018-04-23T03:00:30.118Z,1001.27
2018-04-23T03:01:30.090Z,1001.24
2018-04-23T03:02:30.079Z,1001.28
2018-04-23T03:03:30.053Z,1001.24
2018-04-23T03:04:30.036Z,1001.28
2018-04-23T03:05:30.010Z,1001.29
2018-04-23T03:06:29.988Z,1001.34
2018-04-23T03:07:29.968Z,1001.39
2018-04-23T03:08:29.949Z,1001.39
2018-04-23T03:09:29.928Z,1001.37
2018-04-23T03:10:29.909Z,1001.37
2018-04-23T03:11:29.891Z,1001.36
2018-04-23T03:12:29.868Z,1001.39
2018-04-23T03:13:29.848Z,1001.39
2018-04-23T03:14:29.828Z,1001.42
2018-04-23T03:15:29.807Z,1001.43
2018-04-23T03:16:29.788Z,1001.37
2018-04-23T03:17:29.863Z,1001.36
2018-04-23T03:18:29.747Z,1001.36
2018-04-23T03:19:29.727Z,1001.37
2018-04-23T03:20:29.708Z,1001.45
2018-04-23T03:21:29.687Z,1001.41
2018-04-23T03:22:29.667Z,1001.45
2018-04-23T03:23:29.647Z,1001.41
2018-04-23T03:24:29.626Z,1001.42
2018-04-23T03:25:29.608Z,1001.38
2018-04-23T03:26:29.587Z,1001.45
2018-04-23T03:27:29.567Z,1001.44
2018-04-23T03:28:29.588Z,1001.48
2018-04-23T03:29:29.525Z,1001.51
2018-04-23T03:30:29.507Z,1001.5
2018-04-23T03:31:29.486Z,1001.56
2018-04-23T03:32:29.468Z,1001.58
2018-04-23T03:33:29.448Z,1001.68
2018-04-23T03:34:29.426Z,1001.69
2018-04-23T03:35:29.408Z,1001.66
2018-04-23T03:36:29.388Z,1001.65
2018-04-23T03:37:29.368Z,1001.69
2018-04-23T03:38:29.347Z,1001.71
2018-04-23T03:39:29.327Z,1001.66
2018-04-23T03:40:29.308Z,1001.7
2018-04-23T03:41:29.288Z,1001.71
2018-04-23T03:42:29.268Z,1001.73
2018-04-23T03:43:29.250Z,1001.78
2018-04-23T03:44:29.311Z,1001.79
2018-04-23T03:45:29.209Z,1001.76
2018-04-23T03:46:29.189Z,1001.82
2018-04-23T03:47:29.169Z,1001.78
2018-04-23T03:48:29.147Z,1001.78
2018-04-23T03:49:29.130Z,1001.79
2018-04-23T03:50:29.123Z,1001.8
2018-04-23T03:51:29.090Z,1001.81
2018-04-23T03:52:29.068Z,1001.82
2018-04-23T03:53:29.049Z,1001.79
2018-04-23T03:54:29.031Z,1001.79
2018-04-23T03:55:29.008Z,1001.79
2018-04-23T03:56:28.989Z,1001.8
2018-04-23T03:57:28.969Z,1001.81
2018-04-23T03:58:28.949Z,1001.77
2018-04-23T03:59:28.929Z,1001.77
2018-04-23T04:00:28.909Z,1001.75
2018-04-23T04:01:28.891Z,1001.77
2018-04-23T04:02:28.887Z,1001.82
2018-04-23T04:03:28.851Z,1001.88
2018-04-23T04:04:28.831Z,1001.84
2018-04-23T04:05:28.817Z,1001.89
2018-04-23T04:06:28.791Z,1001.84
2018-04-23T04:07:28.771Z,1001.87
2018-04-23T04:08:28.762Z,1001.82
2018-04-23T04:09:28.730Z,1001.81
2018-04-23T04:10:28.712Z,1001.85
2018-04-23T04:11:28.693Z,1001.85
2018-04-23T04:12:28.673Z,1001.83
2018-04-23T04:13:28.652Z,1001.84
2018-04-23T04:14:28.634Z,1001.83
2018-04-23T04:15:28.614Z,1001.83
2018-04-23T04:16:28.605Z,1001.87
2018-04-23T04:17:28.573Z,1001.87
2018-04-23T04:18:28.555Z,1001.97
2018-04-23T04:19:28.534Z,1001.95
2018-04-23T04:20:28.514Z,1001.95
2018-04-23T04:21:28.495Z,1001.95
2018-04-23T04:22:28.476Z,1001.94
2018-04-23T04:23:28.456Z,1001.98
2018-04-23T04:24:28.435Z,1001.96
2018-04-23T04:25:28.415Z,1001.96
2018-04-23T04:26:28.396Z,1001.91
2018-04-23T04:27:28.377Z,1001.95
2018-04-23T04:28:28.356Z,1001.94
2018-04-23T04:29:28.336Z,1001.99
2018-04-23T04:30:28.316Z,1001.96
2018-04-23T04:31:28.296Z,1002.06
2018-04-23T04:32:28.277Z,1002.02
2018-04-23T04:33:28.261Z,1002.03
2018-04-23T04:34:28.239Z,1002.04
2018-04-23T04:35:28.231Z,1002
2018-04-23T04:36:28.198Z,1002.03
2018-04-23T04:37:28.179Z,1002
2018-04-23T04:38:28.159Z,1002
2018-04-23T04:39:28.139Z,1002.07
2018-04-23T04:40:28.119Z,1002.07
2018-04-23T04:41:28.101Z,1002.04
2018-04-23T04:42:28.079Z,1002.08
2018-04-23T04:43:28.060Z,1002.04
2018-04-23T04:44:28.040Z,1002.1
2018-04-23T04:45:28.022Z,1002.03
2018-04-23T04:46:27.999Z,1002.12
2018-04-23T04:47:27.981Z,1002.12
2018-04-23T04:48:27.962Z,1002.13
2018-04-23T04:49:27.946Z,1002.12
2018-04-23T04:50:27.922Z,1002.12
2018-04-23T04:51:27.901Z,1002.15
2018-04-23T04:52:27.882Z,1002.12
2018-04-23T04:53:27.866Z,1002.19
2018-04-23T04:54:27.846Z,1002.16
2018-04-23T04:55:27.824Z,1002.17
2018-04-23T04:56:27.804Z,1002.19
2018-04-23T04:57:27.784Z,1002.2
2018-04-23T04:58:27.765Z,1002.18
2018-04-23T04:59:27.828Z,1002.21
2018-04-23T05:00:27.726Z,1002.22
2018-04-23T05:01:27.704Z,1002.19
2018-04-23T05:02:27.686Z,1002.2
2018-04-23T05:03:27.666Z,1002.23
2018-04-23T05:04:27.645Z,1002.28
2018-04-23T05:05:27.626Z,1002.31
2018-04-23T05:06:27.605Z,1002.31
2018-04-23T05:07:27.588Z,1002.31
2018-04-23T05:08:27.566Z,1002.31
2018-04-23T05:09:27.546Z,1002.3
2018-04-23T05:10:27.529Z,1002.25
2018-04-23T05:11:27.509Z,1002.22
2018-04-23T05:12:27.489Z,1002.22
2018-04-23T05:13:27.471Z,1002.19
2018-04-23T05:14:27.453Z,1002.27
2018-04-23T05:15:27.432Z,1002.29
2018-04-23T05:16:27.414Z,1002.32
2018-04-23T05:17:27.397Z,1002.36
2018-04-23T05:18:27.375Z,1002.29
2018-04-23T05:19:27.355Z,1002.36
2018-04-23T05:20:27.336Z,1002.37
2018-04-23T05:21:27.317Z,1002.35
2018-04-23T05:22:27.298Z,1002.37
2018-04-23T05:23:27.281Z,1002.43
2018-04-23T05:24:27.261Z,1002.46
2018-04-23T05:25:27.243Z,1002.48
2018-04-23T05:26:27.223Z,1002.5
2018-04-23T05:27:27.207Z,1002.44
2018-04-23T05:28:27.186Z,1002.5
2018-04-23T05:29:27.167Z,1002.55
2018-04-23T05:30:27.153Z,1002.49
2018-04-23T05:31:27.131Z,1002.53
2018-04-23T05:32:27.110Z,1002.54
2018-04-23T05:33:27.089Z,1002.53
2018-04-23T05:34:27.070Z,1002.58
2018-04-23T05:35:27.053Z,1002.63
2018-04-23T05:36:27.035Z,1002.6
2018-04-23T05:37:27.022Z,1002.58
2018-04-23T05:38:26.997Z,1002.56
2018-04-23T05:39:26.978Z,1002.58
2018-04-23T05:40:26.960Z,1002.63
2018-04-23T05:41:26.985Z,1002.65
2018-04-23T05:42:26.922Z,1002.61
2018-04-23T05:43:26.904Z,1002.57
2018-04-23T05:44:26.885Z,1002.48
2018-04-23T05:45:26.866Z,1002.47
2018-04-23T05:46:26.851Z,1002.49
2018-04-23T05:47:26.833Z,1002.51
2018-04-23T05:48:26.810Z,1002.47
2018-04-23T05:49:26.793Z,1002.5
2018-04-23T05:50:26.779Z,1002.55
2018-04-23T05:51:26.759Z,1002.6
2018-04-23T05:52:26.738Z,1002.54
2018-04-23T05:53:26.721Z,1002.57
2018-04-23T05:54:26.703Z,1002.57
2018-04-23T05:55:26.685Z,1002.55
2018-04-23T05:56:26.672Z,1002.6
2018-04-23T05:57:26.648Z,1002.57
2018-04-23T05:58:26.629Z,1002.57
2018-04-23T05:59:26.615Z,1002.6
2018-04-23T06:00:26.592Z,1002.62
2018-04-23T06:01:26.576Z,1002.63
2018-04-23T06:02:26.558Z,1002.64
2018-04-23T06:03:26.539Z,1002.63
2018-04-23T06:04:26.522Z,1002.64
2018-04-23T06:05:26.504Z,1002.6
2018-04-23T06:06:26.492Z,1002.6
2018-04-23T06:07:26.467Z,1002.65
2018-04-23T06:08:26.449Z,1002.63
2018-04-23T06:09:26.431Z,1002.68
2018-04-23T06:10:26.414Z,1002.68
2018-04-23T06:11:26.397Z,1002.73
2018-04-23T06:12:26.379Z,1002.69
2018-04-23T06:13:26.363Z,1002.73
2018-04-23T06:14:26.422Z,1002.73
2018-04-23T06:15:26.326Z,1002.77
2018-04-23T06:16:26.310Z,1002.78
2018-04-23T06:17:26.291Z,1002.79
2018-04-23T06:18:26.275Z,1002.79
2018-04-23T06:19:26.265Z,1002.85
2018-04-23T06:20:26.240Z,1002.83
2018-04-23T06:21:26.222Z,1002.81
2018-04-23T06:22:26.210Z,1002.86
2018-04-23T06:23:26.188Z,1002.86
2018-04-23T06:24:26.171Z,1002.94
2018-04-23T06:25:26.162Z,1002.93
2018-04-23T06:26:26.139Z,1002.86
2018-04-23T06:27:26.119Z,1002.91
2018-04-23T06:28:26.105Z,1002.98
2018-04-23T06:29:26.085Z,1002.88
2018-04-23T06:30:26.067Z,1003
2018-04-23T06:31:26.052Z,1003.01
2018-04-23T06:32:26.038Z,1003.02
2018-04-23T06:33:26.021Z,1003.09
2018-04-23T06:34:26.001Z,1002.99
2018-04-23T06:35:25.984Z,1003
2018-04-23T06:36:25.967Z,1003.05
2018-04-23T06:37:25.952Z,1002.96
2018-04-23T06:38:25.934Z,1003.06
2018-04-23T06:39:25.916Z,1003.1
2018-04-23T06:40:25.899Z,1003.08
2018-04-23T06:41:25.882Z,1003.08
2018-04-23T06:42:25.864Z,1003.05
2018-04-23T06:43:25.844Z,1003.13
2018-04-23T06:44:25.825Z,1003.13
2018-04-23T06:45:25.809Z,1003.15
2018-04-23T06:46:26.050Z,1003.1
2018-04-23T06:47:25.780Z,1003.15
2018-04-23T06:48:25.783Z,1003.05
2018-04-23T06:49:25.742Z,1003.13
2018-04-23T06:50:25.718Z,1003.07
2018-04-23T06:51:25.702Z,1003.12
2018-04-23T06:52:25.721Z,1003.15
2018-04-23T06:53:25.669Z,1003.16
2018-04-23T06:54:25.723Z,1003.18
2018-04-23T06:55:25.628Z,1003.18
2018-04-23T06:56:25.612Z,1003.13
2018-04-23T06:57:25.594Z,1003.17
2018-04-23T06:58:25.599Z,1003.2
2018-04-23T06:59:25.619Z,1003.13
2018-04-23T07:00:25.542Z,1003.16
2018-04-23T07:01:25.530Z,1003.13
2018-04-23T07:02:25.508Z,1003.16
2018-04-23T07:03:25.491Z,1003.17
2018-04-23T07:04:25.473Z,1003.2
2018-04-23T07:05:25.457Z,1003.19
2018-04-23T07:06:25.442Z,1003.23
2018-04-23T07:07:25.424Z,1003.18
2018-04-23T07:08:25.406Z,1003.21
2018-04-23T07:09:25.390Z,1003.22
2018-04-23T07:10:25.379Z,1003.26
2018-04-23T07:11:25.358Z,1003.25
2018-04-23T07:12:25.626Z,1003.27
2018-04-23T07:13:25.325Z,1003.32
2018-04-23T07:14:25.311Z,1003.4
2018-04-23T07:15:25.541Z,1003.26
2018-04-23T07:16:25.546Z,1003.15
2018-04-23T07:17:25.261Z,1003.32
2018-04-23T07:18:25.245Z,1003.29
2018-04-23T07:19:25.229Z,1003.32
2018-04-23T07:20:25.320Z,1003.34
2018-04-23T07:21:25.197Z,1003.32
2018-04-23T07:22:25.180Z,1003.3
2018-04-23T07:23:25.163Z,1003.32
2018-04-23T07:24:25.169Z,1003.32
2018-04-23T07:25:25.128Z,1003.35
2018-04-23T07:26:25.119Z,1003.39
2018-04-23T07:27:25.092Z,1003.39
2018-04-23T07:28:25.075Z,1003.4
2018-04-23T07:29:25.059Z,1003.31
2018-04-23T07:30:25.041Z,1003.42
2018-04-23T07:31:25.026Z,1003.39
2018-04-23T07:32:25.007Z,1003.4
2018-04-23T07:33:24.989Z,1003.37
2018-04-23T07:34:24.973Z,1003.41
2018-04-23T07:35:24.955Z,1003.43
2018-04-23T07:36:25.028Z,1003.46
2018-04-23T07:37:24.920Z,1003.5
2018-04-23T07:38:24.902Z,1003.45
2018-04-23T07:39:24.883Z,1003.54
2018-04-23T07:40:24.866Z,1003.49
2018-04-23T07:41:24.848Z,1003.52
2018-04-23T07:42:24.831Z,1003.51
2018-04-23T07:43:24.814Z,1003.53
2018-04-23T07:44:24.799Z,1003.56
2018-04-23T07:45:24.777Z,1003.53
2018-04-23T07:46:24.760Z,1003.46
2018-04-23T07:47:24.743Z,1003.52
2018-04-23T07:48:24.726Z,1003.48
2018-04-23T07:49:24.705Z,1003.49
2018-04-23T07:50:24.694Z,1003.49
2018-04-23T07:51:24.671Z,1003.54
2018-04-23T07:52:24.653Z,1003.53
2018-04-23T07:53:24.635Z,1003.54
2018-04-23T07:54:24.617Z,1003.49
2018-04-23T07:55:24.601Z,1003.52
2018-04-23T07:56:24.583Z,1003.53
2018-04-23T07:57:24.566Z,1003.6
2018-04-23T07:58:24.549Z,1003.51
2018-04-23T07:59:24.538Z,1003.52
2018-04-23T08:00:24.512Z,1003.61
2018-04-23T08:01:24.606Z,1003.68
2018-04-23T08:02:24.480Z,1003.67
2018-04-23T08:03:24.463Z,1003.66
2018-04-23T08:04:24.448Z,1003.73
2018-04-23T08:05:24.429Z,1003.73
2018-04-23T08:06:24.414Z,1003.7
2018-04-23T08:07:24.398Z,1003.66
2018-04-23T08:08:24.381Z,1003.73
2018-04-23T08:09:24.370Z,1003.77
2018-04-23T08:10:24.353Z,1003.79
2018-04-23T08:11:24.334Z,1003.77
2018-04-23T08:12:24.320Z,1003.73
2018-04-23T08:13:24.309Z,1003.73
2018-04-23T08:14:24.288Z,1003.7
2018-04-23T08:15:24.375Z,1003.7
2018-04-23T08:16:24.262Z,1003.67
2018-04-23T08:17:24.246Z,1003.69
2018-04-23T08:18:24.232Z,1003.71
2018-04-23T08:19:24.219Z,1003.66
2018-04-23T08:20:24.207Z,1003.72
2018-04-23T08:21:24.193Z,1003.71
2018-04-23T08:22:24.180Z,1003.68
2018-04-23T08:23:24.168Z,1003.79
2018-04-23T08:24:24.155Z,1003.77
2018-04-23T08:25:24.166Z,1003.77
2018-04-23T08:26:24.127Z,1003.76
2018-04-23T08:27:24.115Z,1003.8
2018-04-23T08:28:24.100Z,1003.82
2018-04-23T08:29:24.086Z,1003.8
2018-04-23T08:30:24.071Z,1003.83
2018-04-23T08:31:24.058Z,1003.69
2018-04-23T08:32:24.044Z,1003.76
2018-04-23T08:33:24.030Z,1003.77
2018-04-23T08:34:24.018Z,1003.76
2018-04-23T08:35:24.004Z,1003.8
2018-04-23T08:36:23.992Z,1003.76
2018-04-23T08:37:23.978Z,1003.84
2018-04-23T08:38:23.966Z,1003.86
2018-04-23T08:39:23.952Z,1003.91
2018-04-23T08:40:23.939Z,1003.89
2018-04-23T08:41:23.926Z,1003.89
2018-04-23T08:42:23.916Z,1003.88
2018-04-23T08:43:23.900Z,1003.88
2018-04-23T08:44:23.888Z,1003.91
2018-04-23T08:45:23.876Z,1003.9
2018-04-23T08:46:23.865Z,1003.97
2018-04-23T08:47:23.853Z,1003.92
2018-04-23T08:48:23.841Z,1003.86
2018-04-23T08:49:23.831Z,1003.82
2018-04-23T08:50:23.866Z,1003.76
2018-04-23T08:51:24.039Z,1003.84
2018-04-23T08:52:23.902Z,1003.84
2018-04-23T08:53:23.781Z,1003.88
2018-04-23T08:54:23.768Z,1003.87
2018-04-23T08:55:23.756Z,1003.89
2018-04-23T08:56:23.744Z,1003.95
2018-04-23T08:57:23.738Z,1003.91
2018-04-23T08:58:23.719Z,1003.94
2018-04-23T08:59:23.707Z,1003.97
2018-04-23T09:00:24.072Z,1003.99
2018-04-23T09:01:23.699Z,1003.96
2018-04-23T09:02:23.672Z,1004.02
2018-04-23T09:03:23.663Z,1003.97
2018-04-23T09:04:23.801Z,1003.99
2018-04-23T09:05:23.636Z,1004.03
2018-04-23T09:06:23.624Z,1004
2018-04-23T09:07:23.613Z,1003.97
2018-04-23T09:08:23.603Z,1004.02
2018-04-23T09:09:23.589Z,1004.11
2018-04-23T09:10:23.577Z,1004.08
2018-04-23T09:11:23.566Z,1004.04
2018-04-23T09:12:23.553Z,1004.08
2018-04-23T09:13:23.541Z,1004.02
2018-04-23T09:14:23.995Z,1004.01
2018-04-23T09:15:23.518Z,1004.05
2018-04-23T09:16:23.505Z,1004.02
2018-04-23T09:17:23.493Z,1003.99
2018-04-23T09:18:23.897Z,1004.05
2018-04-23T09:19:23.883Z,1003.99
2018-04-23T09:20:23.459Z,1004.02
2018-04-23T09:21:23.447Z,1004.07
2018-04-23T09:22:23.435Z,1004.05
2018-04-23T09:23:23.422Z,1004.1
2018-04-23T09:24:23.411Z,1004.08
2018-04-23T09:25:23.398Z,1004.14
2018-04-23T09:26:23.386Z,1004.1
2018-04-23T09:27:23.375Z,1004.1
2018-04-23T09:28:23.361Z,1004.08
2018-04-23T09:29:23.353Z,1004.06
2018-04-23T09:30:23.341Z,1004.1
2018-04-23T09:31:23.328Z,1004.15
2018-04-23T09:32:23.312Z,1004.15
2018-04-23T09:33:23.300Z,1004.19
2018-04-23T09:34:23.288Z,1004.21
2018-04-23T09:35:23.276Z,1004.21
2018-04-23T09:36:23.261Z,1004.22
2018-04-23T09:37:23.249Z,1004.2
2018-04-23T09:38:23.235Z,1004.31
2018-04-23T09:39:23.222Z,1004.14
2018-04-23T09:40:23.209Z,1004.3
2018-04-23T09:41:23.198Z,1004.29
2018-04-23T09:42:23.183Z,1004.31
2018-04-23T09:43:23.169Z,1004.34
2018-04-23T09:44:23.214Z,1004.34
2018-04-23T09:45:23.143Z,1004.32
2018-04-23T09:46:23.129Z,1004.33
2018-04-23T09:47:23.115Z,1004.27
2018-04-23T09:48:23.101Z,1004.3
2018-04-23T09:49:23.086Z,1004.45
2018-04-23T09:50:23.075Z,1004.46
2018-04-23T09:51:23.057Z,1004.42
2018-04-23T09:52:23.042Z,1004.47
2018-04-23T09:53:23.026Z,1004.42
2018-04-23T09:54:23.013Z,1004.45
2018-04-23T09:55:22.999Z,1004.49
2018-04-23T09:56:22.982Z,1004.5
2018-04-23T09:57:23.190Z,1004.39
2018-04-23T09:58:22.960Z,1004.5
2018-04-23T09:59:22.939Z,1004.49
2018-04-23T10:00:23.031Z,1004.46
2018-04-23T10:01:22.905Z,1004.5
2018-04-23T10:02:22.889Z,1004.49
2018-04-23T10:03:22.873Z,1004.46
2018-04-23T10:04:22.856Z,1004.41
2018-04-23T10:05:22.842Z,1004.41
2018-04-23T10:06:22.827Z,1004.5
2018-04-23T10:07:22.812Z,1004.55
2018-04-23T10:08:22.794Z,1004.53
2018-04-23T10:09:22.778Z,1004.55
2018-04-23T10:10:22.763Z,1004.49
2018-04-23T10:11:22.746Z,1004.53
2018-04-23T10:12:22.733Z,1004.56
2018-04-23T10:13:23.008Z,1004.49
2018-04-23T10:14:22.698Z,1004.52
2018-04-23T10:15:22.683Z,1004.46
2018-04-23T10:16:22.668Z,1004.53
2018-04-23T10:17:22.653Z,1004.59
2018-04-23T10:18:22.638Z,1004.53
2018-04-23T10:19:22.620Z,1004.56
2018-04-23T10:20:22.605Z,1004.65
2018-04-23T10:21:22.591Z,1004.51
2018-04-23T10:22:22.573Z,1004.47
2018-04-23T10:23:22.558Z,1004.53
2018-04-23T10:24:22.544Z,1004.48
2018-04-23T10:25:22.530Z,1004.58
2018-04-23T10:26:22.513Z,1004.64
2018-04-23T10:27:22.501Z,1004.59
2018-04-23T10:28:22.484Z,1004.5
2018-04-23T10:29:22.470Z,1004.55
2018-04-23T10:30:22.459Z,1004.47
2018-04-23T10:31:22.468Z,1004.55
2018-04-23T10:32:22.424Z,1004.5
2018-04-23T10:33:22.408Z,1004.49
2018-04-23T10:34:22.394Z,1004.49
2018-04-23T10:35:22.379Z,1004.47
2018-04-23T10:36:22.372Z,1004.49
2018-04-23T10:37:22.351Z,1004.48
2018-04-23T10:38:22.334Z,1004.58
2018-04-23T10:39:22.320Z,1004.74
2018-04-23T10:40:22.306Z,1004.65
2018-04-23T10:41:22.291Z,1004.65
2018-04-23T10:42:22.277Z,1004.56
2018-04-23T10:43:22.263Z,1004.57
2018-04-23T10:44:22.246Z,1004.63
2018-04-23T10:45:22.241Z,1004.56
2018-04-23T10:46:22.220Z,1004.6
2018-04-23T10:47:22.204Z,1004.56
2018-04-23T10:48:22.191Z,1004.62
2018-04-23T10:49:22.176Z,1004.58
2018-04-23T10:50:22.160Z,1004.61
2018-04-23T10:51:22.147Z,1004.53
2018-04-23T10:52:22.132Z,1004.65
2018-04-23T10:53:22.118Z,1004.46
2018-04-23T10:54:22.109Z,1004.61
2018-04-23T10:55:22.091Z,1004.61
2018-04-23T10:56:22.077Z,1004.73
2018-04-23T10:57:22.064Z,1004.59
2018-04-23T10:58:22.049Z,1004.59
2018-04-23T10:59:22.035Z,1004.68
2018-04-23T11:00:22.021Z,1004.61
2018-04-23T11:01:22.007Z,1004.55
2018-04-23T11:02:21.995Z,1004.61
2018-04-23T11:03:21.979Z,1004.56
2018-04-23T11:04:21.964Z,1004.55
2018-04-23T11:05:21.950Z,1004.61
2018-04-23T11:06:21.936Z,1004.57
2018-04-23T11:07:21.923Z,1004.58
2018-04-23T11:08:21.908Z,1004.55
2018-04-23T11:09:21.895Z,1004.57
2018-04-23T11:10:21.879Z,1004.58
2018-04-23T11:11:21.870Z,1004.61
2018-04-23T11:12:21.855Z,1004.52
2018-04-23T11:13:21.838Z,1004.62
2018-04-23T11:14:21.822Z,1004.54
2018-04-23T11:15:21.808Z,1004.62
2018-04-23T11:16:21.945Z,1004.59
2018-04-23T11:17:21.781Z,1004.65
2018-04-23T11:18:21.767Z,1004.59
2018-04-23T11:19:21.754Z,1004.62
2018-04-23T11:20:21.741Z,1004.69
2018-04-23T11:21:21.728Z,1004.72
2018-04-23T11:22:21.711Z,1004.59
2018-04-23T11:23:21.698Z,1004.68
2018-04-23T11:24:21.684Z,1004.65
2018-04-23T11:25:21.670Z,1004.61
2018-04-23T11:26:21.656Z,1004.64
2018-04-23T11:27:21.643Z,1004.65
2018-04-23T11:28:21.636Z,1004.65
2018-04-23T11:29:21.611Z,1004.68
2018-04-23T11:30:21.598Z,1004.69
2018-04-23T11:31:21.584Z,1004.68
2018-04-23T11:32:21.570Z,1004.75
2018-04-23T11:33:21.556Z,1004.64
2018-04-23T11:34:21.544Z,1004.69
2018-04-23T11:35:21.526Z,1004.65
2018-04-23T11:36:21.610Z,1004.68
2018-04-23T11:37:21.496Z,1004.71
2018-04-23T11:38:21.482Z,1004.64
2018-04-23T11:39:21.467Z,1004.64
2018-04-23T11:40:21.450Z,1004.66
2018-04-23T11:41:21.435Z,1004.74
2018-04-23T11:42:21.420Z,1004.77
2018-04-23T11:43:21.404Z,1004.73
2018-04-23T11:44:21.390Z,1004.72
2018-04-23T11:45:21.375Z,1004.71
2018-04-23T11:46:21.359Z,1004.83
2018-04-23T11:47:21.344Z,1004.7
2018-04-23T11:48:21.330Z,1004.74
2018-04-23T11:49:21.313Z,1004.74
2018-04-23T11:50:21.298Z,1004.73
2018-04-23T11:51:21.284Z,1004.7
2018-04-23T11:52:21.267Z,1004.77
2018-04-23T11:53:21.253Z,1004.77
2018-04-23T11:54:21.237Z,1004.74
2018-04-23T11:55:21.220Z,1004.82
2018-04-23T11:56:21.207Z,1004.74
2018-04-23T11:57:21.191Z,1004.7
2018-04-23T11:58:21.176Z,1004.7
2018-04-23T11:59:21.162Z,1004.66
2018-04-23T12:00:21.148Z,1004.84
2018-04-23T12:01:21.135Z,1004.72
2018-04-23T12:02:21.131Z,1004.39
2018-04-23T12:03:21.104Z,1004.65
2018-04-23T12:04:21.089Z,1004.64
2018-04-23T12:05:21.074Z,1004.67
2018-04-23T12:06:21.059Z,1004.71
2018-04-23T12:07:21.045Z,1004.56
2018-04-23T12:08:21.030Z,1004.68